Time;durP1;ratioP1;P1;durP2;ratioP2;P2;SDS_P1;SDS_P2;PMS_P1;PMS_P2;Temp;Humidity;BMP_temperature;BMP_pressure;BME280_temperature;BME280_humidity;BME280_pressure;Samples;Min_cycle;Max_cycle;Signal;HPM_P1;HPM_P2
2023/12/13 00:01:31;;;;;;;180.02;42.47;;;;;;;;;;5053271;28;20072;-63
2023/12/13 00:04:00;;;;;;;193.82;44.63;;;;;;;;;;5049983;28;20056;-63
2023/12/13 00:06:27;;;;;;;202.48;44.35;;;;;;;;;;5052180;28;20081;-63
2023/12/13 00:08:53;;;;;;;172.80;40.17;;;;;;;;;;5052582;28;20400;-63
2023/12/13 00:11:19;;;;;;;164.45;40.40;;;;;;;;;;5052588;28;20037;-63
2023/12/13 00:13:46;;;;;;;149.60;38.40;;;;;;;;;;5017143;28;20057;-63
2023/12/13 00:16:12;;;;;;;134.52;35.30;;;;;;;;;;5035967;28;20183;-63
2023/12/13 00:18:38;;;;;;;165.27;39.55;;;;;;;;;;5028851;28;20065;-63
2023/12/13 00:21:04;;;;;;;143.15;35.92;;;;;;;;;;5031002;28;20049;-63
2023/12/13 00:23:31;;;;;;;105.65;30.23;;;;;;;;;;5029375;28;20068;-63
2023/12/13 00:25:57;;;;;;;116.38;32.20;;;;;;;;;;5031601;28;20476;-63
2023/12/13 00:28:27;;;;;;;103.68;30.38;;;;;;;;;;5031896;28;20497;-63
2023/12/13 00:30:53;;;;;;;104.80;30.63;;;;;;;;;;5030969;28;20047;-63
2023/12/13 00:33:20;;;;;;;101.95;30.02;;;;;;;;;;5029761;28;20049;-63
2023/12/13 00:35:46;;;;;;;103.82;31.95;;;;;;;;;;5030559;28;20045;-63
2023/12/13 00:38:12;;;;;;;101.63;29.75;;;;;;;;;;5031474;28;20120;-63
2023/12/13 00:40:39;;;;;;;129.18;30.88;;;;;;;;;;5030660;28;20053;-63
2023/12/13 00:43:05;;;;;;;127.53;32.83;;;;;;;;;;5028385;28;20038;-63
2023/12/13 00:45:32;;;;;;;123.85;32.60;;;;;;;;;;5032373;28;20045;-63
2023/12/13 00:47:58;;;;;;;126.68;31.67;;;;;;;;;;5028752;28;20131;-63
2023/12/13 00:50:24;;;;;;;127.20;31.95;;;;;;;;;;5033435;28;20041;-63
2023/12/13 00:52:50;;;;;;;143.73;36.30;;;;;;;;;;5031872;28;20491;-63
2023/12/13 00:55:16;;;;;;;135.35;33.35;;;;;;;;;;5031056;28;20857;-63
2023/12/13 00:57:42;;;;;;;128.82;32.90;;;;;;;;;;5031029;28;20048;-63
2023/12/13 01:00:11;;;;;;;134.00;32.30;;;;;;;;;;5029588;28;20565;-64
2023/12/13 01:02:38;;;;;;;133.02;31.73;;;;;;;;;;5028350;28;20401;-63
2023/12/13 01:05:04;;;;;;;124.88;32.10;;;;;;;;;;5031518;28;20125;-64
2023/12/13 01:07:30;;;;;;;122.95;31.02;;;;;;;;;;5031500;28;20517;-63
2023/12/13 01:09:56;;;;;;;118.78;30.63;;;;;;;;;;5028325;28;20053;-63
2023/12/13 01:12:22;;;;;;;122.80;32.72;;;;;;;;;;5046891;28;20038;-63
2023/12/13 01:14:49;;;;;;;127.63;32.65;;;;;;;;;;5030508;28;20568;-63
2023/12/13 01:17:15;;;;;;;116.85;31.25;;;;;;;;;;5029940;28;20223;-63
2023/12/13 01:19:41;;;;;;;121.45;32.60;;;;;;;;;;5030019;28;20060;-63
2023/12/13 01:22:08;;;;;;;115.25;30.52;;;;;;;;;;5029381;28;20120;-63
2023/12/13 01:24:34;;;;;;;93.38;29.70;;;;;;;;;;5028944;28;20045;-63
2023/12/13 01:27:00;;;;;;;105.00;30.58;;;;;;;;;;5030195;28;20052;-63
2023/12/13 01:29:26;;;;;;;98.07;30.25;;;;;;;;;;5028548;28;20057;-63
2023/12/13 01:31:53;;;;;;;97.93;31.02;;;;;;;;;;5028685;28;20219;-63
2023/12/13 01:34:19;;;;;;;93.40;30.15;;;;;;;;;;5025660;28;20045;-63
2023/12/13 01:36:45;;;;;;;93.68;29.95;;;;;;;;;;5028384;28;20064;-63
2023/12/13 01:39:13;;;;;;;105.45;31.02;;;;;;;;;;5029869;28;20054;-63
2023/12/13 01:41:39;;;;;;;98.60;30.40;;;;;;;;;;5031318;28;20167;-63
2023/12/13 01:44:05;;;;;;;101.47;30.15;;;;;;;;;;5031250;28;20481;-63
2023/12/13 01:46:32;;;;;;;87.80;29.52;;;;;;;;;;5029384;28;20095;-63
2023/12/13 01:48:58;;;;;;;100.03;30.27;;;;;;;;;;5029175;28;20172;-63
2023/12/13 01:51:24;;;;;;;90.15;30.50;;;;;;;;;;5013319;28;20473;-63
2023/12/13 01:53:50;;;;;;;107.10;31.48;;;;;;;;;;5030791;28;20071;-63
2023/12/13 01:56:17;;;;;;;102.55;30.25;;;;;;;;;;5030498;28;20041;-63
2023/12/13 01:58:44;;;;;;;95.13;31.30;;;;;;;;;;5028842;28;20041;-64
2023/12/13 02:01:10;;;;;;;98.10;31.38;;;;;;;;;;5029061;28;20050;-63
2023/12/13 02:03:37;;;;;;;105.20;32.55;;;;;;;;;;5028419;28;20057;-63
2023/12/13 02:06:03;;;;;;;99.82;31.60;;;;;;;;;;5027813;28;20046;-63
2023/12/13 02:08:30;;;;;;;101.18;30.77;;;;;;;;;;5029911;28;20092;-63
2023/12/13 02:10:58;;;;;;;88.07;29.40;;;;;;;;;;5030584;28;20107;-63
2023/12/13 02:13:24;;;;;;;105.95;32.42;;;;;;;;;;5027173;28;20095;-63
2023/12/13 02:15:51;;;;;;;109.68;32.95;;;;;;;;;;5028862;28;20397;-63
2023/12/13 02:18:17;;;;;;;98.60;31.17;;;;;;;;;;5031682;28;20042;-64
2023/12/13 02:20:44;;;;;;;112.38;32.92;;;;;;;;;;5049606;28;20061;-63
2023/12/13 02:23:10;;;;;;;127.32;32.95;;;;;;;;;;5032259;28;20111;-63
2023/12/13 02:25:39;;;;;;;107.07;31.33;;;;;;;;;;5027649;28;20128;-63
2023/12/13 02:28:06;;;;;;;111.50;31.67;;;;;;;;;;5028876;28;20072;-63
2023/12/13 02:30:32;;;;;;;112.10;32.40;;;;;;;;;;5016134;28;21609;-64
2023/12/13 02:32:58;;;;;;;123.38;33.00;;;;;;;;;;5029124;28;20056;-63
2023/12/13 02:35:24;;;;;;;121.25;33.60;;;;;;;;;;5031660;28;20488;-63
2023/12/13 02:37:50;;;;;;;127.65;31.17;;;;;;;;;;5049191;28;20610;-63
2023/12/13 02:40:17;;;;;;;113.70;32.33;;;;;;;;;;5032018;28;20088;-63
2023/12/13 02:42:44;;;;;;;127.47;33.95;;;;;;;;;;5047490;28;20102;-63
2023/12/13 02:45:14;;;;;;;123.07;33.17;;;;;;;;;;5015099;28;20091;-63
2023/12/13 02:47:43;;;;;;;136.75;34.15;;;;;;;;;;5046738;28;20052;-63
2023/12/13 02:50:11;;;;;;;137.48;34.65;;;;;;;;;;5032327;28;20641;-63
2023/12/13 02:52:38;;;;;;;131.93;34.33;;;;;;;;;;5049944;28;20094;-63
2023/12/13 02:55:04;;;;;;;141.23;34.70;;;;;;;;;;5030497;28;20577;-63
2023/12/13 02:57:31;;;;;;;133.73;34.75;;;;;;;;;;5033388;28;20132;-64
2023/12/13 02:59:57;;;;;;;135.02;33.33;;;;;;;;;;5031739;28;20521;-63
2023/12/13 03:02:23;;;;;;;106.05;32.20;;;;;;;;;;5030945;28;20441;-63
2023/12/13 03:04:49;;;;;;;121.88;32.72;;;;;;;;;;5036030;28;20037;-64
2023/12/13 03:07:15;;;;;;;126.68;33.00;;;;;;;;;;5018479;28;20041;-63
2023/12/13 03:09:41;;;;;;;119.15;33.13;;;;;;;;;;5035782;28;20045;-63
2023/12/13 03:12:08;;;;;;;136.40;34.53;;;;;;;;;;5020528;28;20045;-63
2023/12/13 03:14:34;;;;;;;136.52;33.58;;;;;;;;;;5036640;28;20412;-63
2023/12/13 03:17:00;;;;;;;165.80;36.28;;;;;;;;;;5032865;28;20541;-63
2023/12/13 03:19:26;;;;;;;164.20;36.17;;;;;;;;;;5032340;28;20046;-63
2023/12/13 03:21:52;;;;;;;124.05;34.13;;;;;;;;;;5015387;28;20060;-63
2023/12/13 03:24:18;;;;;;;138.15;34.90;;;;;;;;;;5025246;28;20064;-63
2023/12/13 03:26:45;;;;;;;140.75;34.42;;;;;;;;;;5027916;28;20492;-63
2023/12/13 03:29:11;;;;;;;106.85;31.70;;;;;;;;;;5028402;28;20195;-63
2023/12/13 03:31:37;;;;;;;105.55;31.30;;;;;;;;;;5027818;28;20115;-63
2023/12/13 03:34:03;;;;;;;112.53;31.27;;;;;;;;;;5036221;28;20078;-64
2023/12/13 03:36:29;;;;;;;99.85;31.02;;;;;;;;;;5025241;28;20034;-63
2023/12/13 03:38:56;;;;;;;103.57;30.63;;;;;;;;;;5031466;28;20045;-63
2023/12/13 03:41:22;;;;;;;105.15;31.98;;;;;;;;;;5034418;28;20056;-63
2023/12/13 03:43:48;;;;;;;110.30;31.33;;;;;;;;;;5031985;28;20041;-63
2023/12/13 03:46:14;;;;;;;93.55;30.38;;;;;;;;;;5032277;28;20118;-63
2023/12/13 03:48:40;;;;;;;110.07;31.38;;;;;;;;;;5031531;28;20049;-63
2023/12/13 03:51:06;;;;;;;96.93;29.77;;;;;;;;;;5029491;28;20057;-63
2023/12/13 03:53:33;;;;;;;97.78;31.15;;;;;;;;;;5030651;28;20096;-63
2023/12/13 03:55:59;;;;;;;98.00;31.33;;;;;;;;;;5032669;28;20080;-63
2023/12/13 03:58:26;;;;;;;101.85;32.30;;;;;;;;;;5031721;28;20144;-63
2023/12/13 04:00:52;;;;;;;96.35;29.25;;;;;;;;;;5033290;28;20488;-63
2023/12/13 04:03:18;;;;;;;98.38;30.55;;;;;;;;;;5033290;28;20049;-64
2023/12/13 04:05:44;;;;;;;102.30;31.17;;;;;;;;;;5032036;28;20435;-63
2023/12/13 04:08:10;;;;;;;91.82;28.30;;;;;;;;;;5026369;28;20099;-63
2023/12/13 04:10:37;;;;;;;91.22;29.23;;;;;;;;;;5032823;28;20512;-63
2023/12/13 04:13:03;;;;;;;93.05;30.60;;;;;;;;;;5029533;28;20041;-63
2023/12/13 04:15:29;;;;;;;83.68;28.92;;;;;;;;;;5028360;28;20474;-64
2023/12/13 04:17:55;;;;;;;89.40;28.45;;;;;;;;;;5029212;28;20048;-63
2023/12/13 04:20:21;;;;;;;84.88;29.92;;;;;;;;;;5030693;28;20104;-63
2023/12/13 04:22:47;;;;;;;103.00;30.88;;;;;;;;;;5031738;28;20045;-63
2023/12/13 04:25:14;;;;;;;91.55;29.88;;;;;;;;;;5032312;28;20180;-63
2023/12/13 04:27:40;;;;;;;95.80;29.48;;;;;;;;;;5030039;28;20113;-63
2023/12/13 04:30:08;;;;;;;96.00;30.55;;;;;;;;;;5032093;28;20192;-63
2023/12/13 04:32:34;;;;;;;87.13;29.50;;;;;;;;;;5032203;28;20052;-63
2023/12/13 04:35:00;;;;;;;93.82;30.23;;;;;;;;;;5030985;28;20124;-63
2023/12/13 04:37:26;;;;;;;95.63;30.92;;;;;;;;;;5030998;28;20396;-63
2023/12/13 04:39:53;;;;;;;90.65;31.77;;;;;;;;;;5032202;28;20042;-63
2023/12/13 04:42:19;;;;;;;91.13;30.58;;;;;;;;;;5031044;28;20129;-63
2023/12/13 04:44:45;;;;;;;98.85;31.73;;;;;;;;;;5031105;28;20441;-63
2023/12/13 04:47:11;;;;;;;99.20;31.90;;;;;;;;;;5014079;28;20049;-64
2023/12/13 04:49:37;;;;;;;102.10;31.50;;;;;;;;;;5030825;28;20438;-63
2023/12/13 04:52:04;;;;;;;94.25;30.98;;;;;;;;;;5018075;28;20045;-63
2023/12/13 04:54:30;;;;;;;133.40;34.97;;;;;;;;;;5032234;28;20165;-63
2023/12/13 04:56:56;;;;;;;114.32;33.45;;;;;;;;;;5031198;28;20127;-63
2023/12/13 04:59:22;;;;;;;106.18;32.53;;;;;;;;;;5033202;28;20117;-63
2023/12/13 05:01:49;;;;;;;117.15;33.22;;;;;;;;;;5030830;28;20549;-64
2023/12/13 05:04:15;;;;;;;109.38;32.70;;;;;;;;;;5032930;28;20041;-63
2023/12/13 05:06:41;;;;;;;99.85;32.55;;;;;;;;;;5030926;28;20041;-63
2023/12/13 05:09:08;;;;;;;109.22;32.65;;;;;;;;;;5032120;28;20049;-63
2023/12/13 05:11:34;;;;;;;94.97;31.45;;;;;;;;;;5028773;28;20037;-64
2023/12/13 05:14:00;;;;;;;92.45;31.65;;;;;;;;;;5032526;28;20540;-63
2023/12/13 05:16:26;;;;;;;100.90;32.63;;;;;;;;;;5031149;28;20373;-63
2023/12/13 05:18:52;;;;;;;102.45;33.22;;;;;;;;;;5015491;28;20397;-64
2023/12/13 05:21:18;;;;;;;90.03;32.55;;;;;;;;;;5031440;28;20049;-63
2023/12/13 05:23:44;;;;;;;95.47;31.20;;;;;;;;;;5030307;28;20077;-63
2023/12/13 05:26:11;;;;;;;93.88;31.05;;;;;;;;;;5029643;28;20056;-63
2023/12/13 05:28:37;;;;;;;107.30;33.22;;;;;;;;;;5031317;28;20049;-64
2023/12/13 05:31:03;;;;;;;92.88;32.03;;;;;;;;;;5030616;28;20037;-63
2023/12/13 05:33:29;;;;;;;105.97;33.50;;;;;;;;;;5032688;28;20077;-63
2023/12/13 05:35:55;;;;;;;94.22;32.28;;;;;;;;;;5030096;28;20056;-63
2023/12/13 05:38:22;;;;;;;104.85;32.97;;;;;;;;;;5031481;28;20041;-63
2023/12/13 05:40:51;;;;;;;98.15;32.38;;;;;;;;;;5032172;28;20045;-63
2023/12/13 05:43:17;;;;;;;90.57;31.73;;;;;;;;;;5031883;28;20041;-63
2023/12/13 05:45:43;;;;;;;99.75;32.42;;;;;;;;;;5031350;28;20042;-63
2023/12/13 05:48:09;;;;;;;107.80;33.88;;;;;;;;;;5031072;28;20042;-63
2023/12/13 05:50:36;;;;;;;89.50;31.17;;;;;;;;;;5031423;28;20169;-63
2023/12/13 05:53:02;;;;;;;79.57;31.02;;;;;;;;;;5028053;28;20083;-63
2023/12/13 05:55:28;;;;;;;97.18;33.40;;;;;;;;;;5028277;28;20396;-64
2023/12/13 05:57:54;;;;;;;96.20;33.63;;;;;;;;;;5030112;28;20045;-64
2023/12/13 06:00:21;;;;;;;103.75;34.08;;;;;;;;;;5030626;28;20045;-64
2023/12/13 06:02:47;;;;;;;86.13;33.25;;;;;;;;;;5028697;28;20046;-63
2023/12/13 06:05:14;;;;;;;98.63;32.97;;;;;;;;;;5010656;28;20037;-64
2023/12/13 06:07:40;;;;;;;95.82;34.78;;;;;;;;;;5030426;28;20054;-64
2023/12/13 06:10:07;;;;;;;93.55;34.03;;;;;;;;;;5030858;28;20455;-64
2023/12/13 06:12:33;;;;;;;98.25;32.40;;;;;;;;;;5029603;28;20168;-64
2023/12/13 06:15:00;;;;;;;97.78;33.40;;;;;;;;;;5029544;28;20049;-64
2023/12/13 06:17:26;;;;;;;102.72;34.88;;;;;;;;;;5030316;28;20049;-64
2023/12/13 06:19:52;;;;;;;95.13;32.78;;;;;;;;;;5044360;28;20061;-64
2023/12/13 06:22:18;;;;;;;93.60;32.65;;;;;;;;;;5051385;28;20041;-63
2023/12/13 06:24:44;;;;;;;107.18;32.53;;;;;;;;;;5033569;28;20124;-64
2023/12/13 06:27:11;;;;;;;89.25;32.08;;;;;;;;;;5045972;28;20147;-63
2023/12/13 06:29:37;;;;;;;95.38;33.15;;;;;;;;;;5031620;28;20064;-64
2023/12/13 06:32:03;;;;;;;100.88;34.03;;;;;;;;;;5033993;28;20040;-63
2023/12/13 06:34:30;;;;;;;102.13;35.13;;;;;;;;;;5029772;28;20041;-65
2023/12/13 06:36:56;;;;;;;99.40;32.05;;;;;;;;;;5026070;28;20049;-64
2023/12/13 06:39:22;;;;;;;102.63;33.67;;;;;;;;;;5035156;28;20091;-64
2023/12/13 06:41:49;;;;;;;105.45;35.17;;;;;;;;;;5032866;28;20049;-64
2023/12/13 06:44:16;;;;;;;109.55;35.42;;;;;;;;;;5034620;28;20048;-64
2023/12/13 06:46:42;;;;;;;96.80;33.70;;;;;;;;;;5033648;28;20047;-64
2023/12/13 06:49:09;;;;;;;103.88;33.50;;;;;;;;;;5033410;28;20056;-64
2023/12/13 06:51:36;;;;;;;98.78;32.28;;;;;;;;;;5033958;28;20049;-64
2023/12/13 06:54:02;;;;;;;106.32;33.67;;;;;;;;;;5016277;28;20492;-64
2023/12/13 06:56:28;;;;;;;102.15;34.55;;;;;;;;;;5031575;28;20040;-64
2023/12/13 06:58:54;;;;;;;97.55;32.97;;;;;;;;;;5034540;28;20449;-64
2023/12/13 07:01:22;;;;;;;97.95;33.47;;;;;;;;;;5032442;28;20125;-64
2023/12/13 07:03:48;;;;;;;104.97;34.53;;;;;;;;;;5033762;28;20456;-64
2023/12/13 07:06:16;;;;;;;91.18;30.88;;;;;;;;;;5050294;28;20052;-64
2023/12/13 07:08:42;;;;;;;96.55;33.78;;;;;;;;;;5033504;28;20507;-64
2023/12/13 07:11:09;;;;;;;97.95;31.92;;;;;;;;;;5050956;28;20084;-64
2023/12/13 07:13:35;;;;;;;100.75;32.95;;;;;;;;;;5051685;28;20052;-64
2023/12/13 07:16:01;;;;;;;106.18;33.22;;;;;;;;;;5050270;28;20492;-64
2023/12/13 07:18:27;;;;;;;102.53;32.42;;;;;;;;;;5031087;28;20053;-64
2023/12/13 07:20:53;;;;;;;96.43;32.08;;;;;;;;;;5033167;28;20202;-64
2023/12/13 07:23:20;;;;;;;97.35;32.83;;;;;;;;;;5048931;28;20056;-64
2023/12/13 07:25:46;;;;;;;93.20;31.33;;;;;;;;;;5035646;28;20048;-64
2023/12/13 07:28:13;;;;;;;111.57;32.72;;;;;;;;;;5034579;28;20049;-64
2023/12/13 07:30:43;;;;;;;102.65;31.83;;;;;;;;;;5053975;28;20071;-64
2023/12/13 07:33:09;;;;;;;100.85;33.88;;;;;;;;;;5019618;28;20068;-64
2023/12/13 07:35:35;;;;;;;109.13;33.03;;;;;;;;;;5051562;28;20534;-64
2023/12/13 07:38:03;;;;;;;121.22;35.60;;;;;;;;;;5053409;28;20492;-64
2023/12/13 07:40:30;;;;;;;124.85;34.30;;;;;;;;;;5030956;28;20044;-64
2023/12/13 07:42:56;;;;;;;120.70;35.90;;;;;;;;;;5051873;28;20136;-64
2023/12/13 07:45:22;;;;;;;115.82;34.35;;;;;;;;;;5029851;28;20457;-64
2023/12/13 07:47:49;;;;;;;116.82;36.00;;;;;;;;;;5032110;28;20049;-64
2023/12/13 07:50:16;;;;;;;166.30;38.85;;;;;;;;;;5032981;28;20392;-64
2023/12/13 07:52:42;;;;;;;121.78;36.65;;;;;;;;;;5032837;28;20065;-63
2023/12/13 07:55:08;;;;;;;115.90;34.33;;;;;;;;;;5054328;28;20041;-63
2023/12/13 07:57:34;;;;;;;116.80;35.47;;;;;;;;;;5034169;28;20067;-63
2023/12/13 08:00:01;;;;;;;112.55;34.72;;;;;;;;;;5041371;28;20107;-64
2023/12/13 08:02:27;;;;;;;153.07;38.55;;;;;;;;;;5053939;28;20044;-63
2023/12/13 08:04:53;;;;;;;126.43;36.20;;;;;;;;;;5029000;28;20477;-63
2023/12/13 08:07:22;;;;;;;125.60;36.72;;;;;;;;;;5046268;28;20044;-63
2023/12/13 08:09:49;;;;;;;113.75;35.13;;;;;;;;;;5018099;28;20119;-63
2023/12/13 08:12:15;;;;;;;141.55;39.03;;;;;;;;;;5030604;28;20052;-63
2023/12/13 08:14:42;;;;;;;144.43;40.55;;;;;;;;;;5049568;28;20125;-63
2023/12/13 08:17:11;;;;;;;125.25;35.80;;;;;;;;;;5032577;28;20056;-63
2023/12/13 08:19:37;;;;;;;140.82;38.60;;;;;;;;;;5031671;28;20056;-63
2023/12/13 08:22:04;;;;;;;144.10;38.58;;;;;;;;;;5032132;28;20484;-63
2023/12/13 08:24:30;;;;;;;130.60;35.55;;;;;;;;;;5029725;28;20098;-63
2023/12/13 08:26:56;;;;;;;161.48;40.70;;;;;;;;;;5032000;28;20151;-63
2023/12/13 08:29:23;;;;;;;130.00;39.85;;;;;;;;;;5031023;28;20037;-63
2023/12/13 08:31:49;;;;;;;179.20;43.00;;;;;;;;;;5031991;28;20388;-63
2023/12/13 08:34:15;;;;;;;143.05;41.67;;;;;;;;;;5032216;28;20049;-63
2023/12/13 08:36:42;;;;;;;191.20;43.33;;;;;;;;;;5050505;28;20055;-63
2023/12/13 08:39:09;;;;;;;140.98;39.92;;;;;;;;;;5049618;28;20172;-63
2023/12/13 08:41:35;;;;;;;163.60;41.72;;;;;;;;;;5049194;28;20119;-63
2023/12/13 08:44:02;;;;;;;130.52;38.38;;;;;;;;;;5048511;28;20141;-63
2023/12/13 08:46:28;;;;;;;119.88;37.13;;;;;;;;;;5048358;28;20056;-63
2023/12/13 08:48:54;;;;;;;136.98;39.08;;;;;;;;;;5048830;28;20530;-63
2023/12/13 08:51:20;;;;;;;122.43;37.97;;;;;;;;;;5050604;28;20412;-63
2023/12/13 08:53:49;;;;;;;125.65;39.05;;;;;;;;;;5047742;28;20150;-63
2023/12/13 08:56:15;;;;;;;139.32;39.50;;;;;;;;;;5031405;28;20053;-63
2023/12/13 08:58:41;;;;;;;126.22;38.00;;;;;;;;;;5049453;28;20064;-63
2023/12/13 09:01:08;;;;;;;129.65;38.55;;;;;;;;;;5028499;28;20488;-63
2023/12/13 09:03:34;;;;;;;130.05;38.50;;;;;;;;;;5031614;28;20095;-64
2023/12/13 09:06:01;;;;;;;139.88;38.33;;;;;;;;;;5049467;28;20044;-63
2023/12/13 09:08:27;;;;;;;104.97;36.15;;;;;;;;;;5048686;28;20124;-64
2023/12/13 09:10:54;;;;;;;113.70;36.95;;;;;;;;;;5048988;28;20072;-63
2023/12/13 09:13:20;;;;;;;129.90;38.33;;;;;;;;;;5047909;28;20041;-64
2023/12/13 09:15:46;;;;;;;130.13;38.08;;;;;;;;;;5028566;28;20049;-64
2023/12/13 09:18:12;;;;;;;138.10;39.50;;;;;;;;;;5032093;28;20126;-64
2023/12/13 09:20:40;;;;;;;125.07;37.30;;;;;;;;;;5030630;28;20058;-64
2023/12/13 09:23:06;;;;;;;112.40;36.00;;;;;;;;;;5047993;28;20041;-64
2023/12/13 09:25:32;;;;;;;121.82;37.53;;;;;;;;;;5047881;28;20064;-64
2023/12/13 09:27:59;;;;;;;123.15;37.72;;;;;;;;;;5049010;28;20044;-64
2023/12/13 09:30:25;;;;;;;119.05;36.92;;;;;;;;;;5048315;28;20166;-64
2023/12/13 09:32:51;;;;;;;132.70;39.22;;;;;;;;;;5030593;28;20037;-64
2023/12/13 09:35:18;;;;;;;115.32;38.50;;;;;;;;;;5047232;28;20041;-64
2023/12/13 09:37:44;;;;;;;123.80;39.17;;;;;;;;;;5030055;28;20199;-64
2023/12/13 09:40:18;;;;;;;112.95;36.65;;;;;;;;;;5030337;28;20049;-64
2023/12/13 09:42:47;;;;;;;109.68;36.50;;;;;;;;;;5029425;28;20045;-63
2023/12/13 09:45:17;;;;;;;116.05;37.90;;;;;;;;;;5030466;28;20049;-64
2023/12/13 09:47:43;;;;;;;109.20;35.08;;;;;;;;;;5030432;28;20057;-64
2023/12/13 09:50:11;;;;;;;112.30;37.00;;;;;;;;;;5047147;28;20501;-64
2023/12/13 09:52:37;;;;;;;128.20;40.00;;;;;;;;;;5045309;28;20858;-72
2023/12/13 09:55:06;;;;;;;144.38;42.75;;;;;;;;;;5031397;28;20048;-65
2023/12/13 09:57:33;;;;;;;132.52;39.53;;;;;;;;;;5046995;28;20104;-64
2023/12/13 09:59:59;;;;;;;120.22;38.50;;;;;;;;;;5030521;28;20041;-64
2023/12/13 10:02:26;;;;;;;107.57;35.55;;;;;;;;;;5048420;28;20041;-65
2023/12/13 10:04:52;;;;;;;110.00;38.47;;;;;;;;;;5048153;28;20055;-65
2023/12/13 10:07:19;;;;;;;126.57;39.17;;;;;;;;;;5045386;28;20033;-64
2023/12/13 10:09:45;;;;;;;108.32;37.22;;;;;;;;;;5012874;28;20091;-66
2023/12/13 10:12:12;;;;;;;116.35;38.75;;;;;;;;;;5049967;28;20116;-64
2023/12/13 10:14:38;;;;;;;116.07;38.42;;;;;;;;;;5050872;28;20045;-64
2023/12/13 10:17:05;;;;;;;119.32;39.45;;;;;;;;;;5030393;28;20048;-65
2023/12/13 10:19:34;;;;;;;105.72;39.28;;;;;;;;;;5049973;28;20057;-64
2023/12/13 10:22:05;;;;;;;122.13;38.10;;;;;;;;;;5033844;28;20374;-64
2023/12/13 10:24:31;;;;;;;120.05;38.20;;;;;;;;;;5033984;28;20088;-65
2023/12/13 10:26:58;;;;;;;100.47;37.05;;;;;;;;;;5031273;28;21371;-64
2023/12/13 10:29:24;;;;;;;105.88;36.70;;;;;;;;;;5033569;28;20488;-64
2023/12/13 10:31:50;;;;;;;100.93;37.42;;;;;;;;;;5032981;28;20052;-64
2023/12/13 10:34:17;;;;;;;105.15;38.35;;;;;;;;;;5048904;28;20127;-64
2023/12/13 10:36:43;;;;;;;116.28;40.22;;;;;;;;;;5017773;28;20042;-65
2023/12/13 10:39:13;;;;;;;105.63;36.80;;;;;;;;;;5048572;28;20609;-64
2023/12/13 10:41:42;;;;;;;111.45;37.65;;;;;;;;;;5050598;28;20135;-64
2023/12/13 10:44:10;;;;;;;108.70;37.92;;;;;;;;;;5033661;28;20068;-64
2023/12/13 10:46:36;;;;;;;117.75;36.05;;;;;;;;;;5031863;28;20045;-64
2023/12/13 10:49:06;;;;;;;118.93;37.42;;;;;;;;;;5015698;28;20465;-64
2023/12/13 10:51:36;;;;;;;122.22;39.90;;;;;;;;;;5040268;28;20399;-65
2023/12/13 10:54:02;;;;;;;107.35;37.60;;;;;;;;;;5050631;28;20055;-64
2023/12/13 10:56:29;;;;;;;108.97;36.40;;;;;;;;;;5050783;28;20040;-64
2023/12/13 10:58:55;;;;;;;101.13;36.35;;;;;;;;;;5051569;28;20045;-64
2023/12/13 11:01:21;;;;;;;101.78;36.42;;;;;;;;;;5048566;28;20037;-65
2023/12/13 11:03:54;;;;;;;103.32;36.40;;;;;;;;;;5033687;28;20483;-64
2023/12/13 11:06:20;;;;;;;97.30;36.00;;;;;;;;;;5032709;28;20041;-64
2023/12/13 11:08:47;;;;;;;96.35;35.67;;;;;;;;;;5032023;28;20093;-64
2023/12/13 11:11:14;;;;;;;103.45;34.85;;;;;;;;;;5031999;28;20052;-64
2023/12/13 11:13:47;;;;;;;106.35;38.05;;;;;;;;;;5031767;28;20044;-64
2023/12/13 11:16:14;;;;;;;95.72;37.53;;;;;;;;;;5031708;28;20496;-64
2023/12/13 11:18:40;;;;;;;96.32;36.88;;;;;;;;;;5033449;28;20073;-64
2023/12/13 11:21:06;;;;;;;99.47;38.22;;;;;;;;;;5031459;28;20044;-65
2023/12/13 11:23:33;;;;;;;89.10;34.63;;;;;;;;;;5033220;28;20068;-64
2023/12/13 11:25:59;;;;;;;85.88;35.38;;;;;;;;;;5037075;28;20098;-64
2023/12/13 11:28:26;;;;;;;95.13;35.78;;;;;;;;;;5035905;28;20051;-64
2023/12/13 11:30:54;;;;;;;79.90;33.08;;;;;;;;;;5054288;28;20064;-65
2023/12/13 11:33:22;;;;;;;93.20;34.00;;;;;;;;;;5051914;28;20427;-65
2023/12/13 11:35:51;;;;;;;85.32;33.88;;;;;;;;;;5052594;28;20048;-66
2023/12/13 11:38:17;;;;;;;92.28;33.58;;;;;;;;;;5054536;28;20096;-64
2023/12/13 11:40:43;;;;;;;88.05;35.25;;;;;;;;;;5036840;28;20411;-64
2023/12/13 11:43:10;;;;;;;89.90;34.97;;;;;;;;;;5052690;28;20049;-64
2023/12/13 11:45:36;;;;;;;91.22;33.47;;;;;;;;;;5053839;28;20511;-64
2023/12/13 11:48:02;;;;;;;92.00;33.65;;;;;;;;;;5035394;28;20045;-64
2023/12/13 11:50:29;;;;;;;99.50;34.30;;;;;;;;;;5035737;28;20037;-64
2023/12/13 11:52:55;;;;;;;95.38;34.30;;;;;;;;;;5019011;28;20107;-64
2023/12/13 11:55:22;;;;;;;85.18;31.55;;;;;;;;;;5054386;28;20076;-64
2023/12/13 11:57:49;;;;;;;93.20;33.67;;;;;;;;;;5053392;28;20111;-63
2023/12/13 12:00:19;;;;;;;107.40;35.40;;;;;;;;;;5011575;28;20072;-65
2023/12/13 12:02:46;;;;;;;105.10;35.17;;;;;;;;;;5038051;28;20041;-64
2023/12/13 12:05:15;;;;;;;105.05;35.03;;;;;;;;;;5035278;28;20084;-65
2023/12/13 12:07:41;;;;;;;107.55;35.38;;;;;;;;;;5035846;28;20041;-64
2023/12/13 12:10:08;;;;;;;105.53;34.63;;;;;;;;;;5035768;28;20395;-64
2023/12/13 12:12:36;;;;;;;100.03;35.05;;;;;;;;;;5050610;28;20393;-64
2023/12/13 12:15:06;;;;;;;95.07;31.90;;;;;;;;;;5038241;28;20044;-63
2023/12/13 12:17:33;;;;;;;104.00;33.60;;;;;;;;;;5031650;28;20099;-64
2023/12/13 12:20:00;;;;;;;130.55;38.33;;;;;;;;;;5034777;28;20053;-64
2023/12/13 12:22:26;;;;;;;123.70;37.53;;;;;;;;;;5014719;28;20048;-64
2023/12/13 12:24:53;;;;;;;120.57;36.22;;;;;;;;;;5034833;28;20076;-64
2023/12/13 12:27:23;;;;;;;115.18;35.10;;;;;;;;;;5033619;28;20045;-64
2023/12/13 12:29:50;;;;;;;110.40;34.05;;;;;;;;;;5052019;28;20045;-64
2023/12/13 12:32:16;;;;;;;132.45;35.55;;;;;;;;;;5052405;28;20052;-64
2023/12/13 12:34:47;;;;;;;103.65;32.45;;;;;;;;;;5034719;28;20056;-64
2023/12/13 12:37:14;;;;;;;113.00;32.33;;;;;;;;;;5051998;28;20094;-64
2023/12/13 12:39:41;;;;;;;110.88;30.88;;;;;;;;;;5034447;28;20503;-64
2023/12/13 12:42:07;;;;;;;108.05;31.88;;;;;;;;;;5017579;28;20171;-63
2023/12/13 12:44:33;;;;;;;102.63;33.70;;;;;;;;;;5053568;28;20106;-63
2023/12/13 12:46:59;;;;;;;108.15;32.75;;;;;;;;;;5033051;28;20197;-64
2023/12/13 12:49:26;;;;;;;123.82;33.42;;;;;;;;;;5035150;28;20122;-64
2023/12/13 12:51:52;;;;;;;117.28;33.55;;;;;;;;;;5052752;28;20037;-64
2023/12/13 12:54:18;;;;;;;115.97;33.53;;;;;;;;;;5032835;28;20052;-64
2023/12/13 12:56:44;;;;;;;112.25;34.17;;;;;;;;;;5051343;28;20052;-64
2023/12/13 12:59:16;;;;;;;96.57;31.83;;;;;;;;;;5034853;28;20552;-64
2023/12/13 13:01:43;;;;;;;105.05;33.53;;;;;;;;;;5034033;28;20480;-64
2023/12/13 13:04:13;;;;;;;95.93;30.48;;;;;;;;;;5034143;28;20049;-64
2023/12/13 13:06:39;;;;;;;102.22;33.78;;;;;;;;;;5034301;28;20049;-62
2023/12/13 13:09:06;;;;;;;88.20;29.45;;;;;;;;;;5033796;28;20045;-64
2023/12/13 13:11:33;;;;;;;104.28;33.05;;;;;;;;;;5018540;28;20431;-65
2023/12/13 13:14:01;;;;;;;97.35;31.67;;;;;;;;;;5032754;28;20049;-63
2023/12/13 13:16:27;;;;;;;89.38;32.20;;;;;;;;;;5050581;28;20121;-63
2023/12/13 13:18:53;;;;;;;107.47;33.92;;;;;;;;;;5049278;28;20049;-64
2023/12/13 13:21:20;;;;;;;99.28;32.10;;;;;;;;;;5033754;28;20132;-64
2023/12/13 13:23:46;;;;;;;104.15;32.72;;;;;;;;;;5018126;28;20045;-64
2023/12/13 13:26:12;;;;;;;109.18;34.90;;;;;;;;;;5052379;28;20060;-63
2023/12/13 13:28:38;;;;;;;105.55;34.83;;;;;;;;;;5048756;28;20072;-63
2023/12/13 13:31:07;;;;;;;107.03;33.97;;;;;;;;;;5051598;28;20082;-71
2023/12/13 13:33:34;;;;;;;113.00;34.33;;;;;;;;;;5046685;28;20181;-64
2023/12/13 13:36:00;;;;;;;125.60;33.47;;;;;;;;;;5051499;28;20528;-64
2023/12/13 13:38:26;;;;;;;121.07;33.30;;;;;;;;;;5051730;28;20400;-64
2023/12/13 13:40:52;;;;;;;99.15;28.25;;;;;;;;;;5051631;28;20215;-64
2023/12/13 13:43:18;;;;;;;111.97;28.80;;;;;;;;;;5050751;28;20062;-64
2023/12/13 13:45:45;;;;;;;116.50;28.25;;;;;;;;;;5016335;28;20037;-64
2023/12/13 13:48:11;;;;;;;91.20;27.45;;;;;;;;;;5033617;28;20049;-64
2023/12/13 13:50:37;;;;;;;103.97;28.50;;;;;;;;;;5032848;28;20427;-64
2023/12/13 13:53:05;;;;;;;86.70;25.02;;;;;;;;;;5032996;28;20072;-64
2023/12/13 13:55:32;;;;;;;88.97;23.70;;;;;;;;;;5033639;28;20043;-64
2023/12/13 13:57:58;;;;;;;54.85;17.20;;;;;;;;;;5016749;28;20489;-64
2023/12/13 14:00:24;;;;;;;55.10;17.30;;;;;;;;;;5034257;28;20041;-64
2023/12/13 14:02:50;;;;;;;40.88;13.68;;;;;;;;;;5031674;28;20132;-64
2023/12/13 14:05:16;;;;;;;36.47;13.18;;;;;;;;;;5034213;28;20048;-63